sensor_id;sensor_type;location;lat;lon;timestamp;pressure;altitude;pressure_sealevel;temperature;humidity
51261;BME280;61705;46.228;24.812;2023-08-31T00:00:51;96883.31;;;15.65;100.00
51261;BME280;61705;46.228;24.812;2023-08-31T00:03:18;96880.22;;;15.72;100.00
51261;BME280;61705;46.228;24.812;2023-08-31T00:05:45;96879.50;;;15.70;100.00
51261;BME280;61705;46.228;24.812;2023-08-31T00:08:13;96880.91;;;15.51;100.00
51261;BME280;61705;46.228;24.812;2023-08-31T00:10:39;96878.72;;;15.45;100.00
51261;BME280;61705;46.228;24.812;2023-08-31T00:13:06;96885.28;;;15.52;100.00
51261;BME280;61705;46.228;24.812;2023-08-31T00:15:34;96886.69;;;15.45;100.00
51261;BME280;61705;46.228;24.812;2023-08-31T00:18:02;96886.22;;;15.40;100.00
51261;BME280;61705;46.228;24.812;2023-08-31T00:20:31;96885.53;;;15.49;100.00
51261;BME280;61705;46.228;24.812;2023-08-31T00:23:00;96893.50;;;15.49;100.00
51261;BME280;61705;46.228;24.812;2023-08-31T00:25:26;96884.91;;;15.57;100.00
51261;BME280;61705;46.228;24.812;2023-08-31T00:27:55;96890.72;;;15.51;100.00
51261;BME280;61705;46.228;24.812;2023-08-31T00:30:22;96880.66;;;15.43;100.00
51261;BME280;61705;46.228;24.812;2023-08-31T00:32:52;96889.03;;;15.50;100.00
51261;BME280;61705;46.228;24.812;2023-08-31T00:35:20;96887.06;;;15.40;100.00
51261;BME280;61705;46.228;24.812;2023-08-31T00:37:48;96888.88;;;15.40;100.00
51261;BME280;61705;46.228;24.812;2023-08-31T00:40:15;96886.47;;;15.37;100.00
51261;BME280;61705;46.228;24.812;2023-08-31T00:42:42;96888.66;;;15.32;100.00
51261;BME280;61705;46.228;24.812;2023-08-31T00:45:09;96885.47;;;15.27;100.00
51261;BME280;61705;46.228;24.812;2023-08-31T00:47:36;96884.25;;;15.20;100.00
51261;BME280;61705;46.228;24.812;2023-08-31T00:50:03;96890.94;;;15.25;100.00
51261;BME280;61705;46.228;24.812;2023-08-31T00:52:30;96889.72;;;15.18;100.00
51261;BME280;61705;46.228;24.812;2023-08-31T00:54:56;96896.81;;;15.06;100.00
51261;BME280;61705;46.228;24.812;2023-08-31T00:57:23;96897.50;;;14.97;100.00
51261;BME280;61705;46.228;24.812;2023-08-31T00:59:52;96894.34;;;14.92;100.00
51261;BME280;61705;46.228;24.812;2023-08-31T01:02:21;96898.06;;;14.89;100.00
51261;BME280;61705;46.228;24.812;2023-08-31T01:04:58;96903.41;;;14.89;100.00
51261;BME280;61705;46.228;24.812;2023-08-31T01:12:50;96898.00;;;15.02;100.00
51261;BME280;61705;46.228;24.812;2023-08-31T01:15:17;96895.81;;;15.07;100.00
51261;BME280;61705;46.228;24.812;2023-08-31T01:17:47;96890.50;;;15.07;100.00
51261;BME280;61705;46.228;24.812;2023-08-31T01:20:16;96888.81;;;15.06;100.00
51261;BME280;61705;46.228;24.812;2023-08-31T01:22:45;96890.19;;;15.23;100.00
51261;BME280;61705;46.228;24.812;2023-08-31T01:25:13;96898.63;;;15.17;100.00
51261;BME280;61705;46.228;24.812;2023-08-31T01:27:42;96899.69;;;15.03;100.00
51261;BME280;61705;46.228;24.812;2023-08-31T01:30:08;96900.50;;;14.92;100.00
51261;BME280;61705;46.228;24.812;2023-08-31T01:32:35;96899.31;;;14.97;100.00
51261;BME280;61705;46.228;24.812;2023-08-31T01:35:02;96910.06;;;14.95;100.00
51261;BME280;61705;46.228;24.812;2023-08-31T01:37:51;96912.75;;;14.95;100.00
51261;BME280;61705;46.228;24.812;2023-08-31T01:42:46;96904.47;;;14.87;100.00
51261;BME280;61705;46.228;24.812;2023-08-31T01:45:14;96906.81;;;14.91;100.00
51261;BME280;61705;46.228;24.812;2023-08-31T01:47:41;96896.81;;;14.71;100.00
51261;BME280;61705;46.228;24.812;2023-08-31T01:50:08;96899.13;;;14.76;100.00
51261;BME280;61705;46.228;24.812;2023-08-31T01:52:35;96893.97;;;14.61;100.00
51261;BME280;61705;46.228;24.812;2023-08-31T01:55:01;96902.94;;;14.60;100.00
51261;BME280;61705;46.228;24.812;2023-08-31T01:57:29;96906.44;;;14.61;100.00
51261;BME280;61705;46.228;24.812;2023-08-31T01:59:56;96908.91;;;14.75;100.00
51261;BME280;61705;46.228;24.812;2023-08-31T02:02:22;96902.16;;;14.82;100.00
51261;BME280;61705;46.228;24.812;2023-08-31T02:04:49;96901.50;;;15.03;100.00
51261;BME280;61705;46.228;24.812;2023-08-31T02:07:17;96900.69;;;15.13;100.00
51261;BME280;61705;46.228;24.812;2023-08-31T02:09:44;96903.13;;;15.16;100.00
51261;BME280;61705;46.228;24.812;2023-08-31T02:12:10;96904.72;;;15.19;100.00
51261;BME280;61705;46.228;24.812;2023-08-31T02:14:37;96907.09;;;15.11;100.00
51261;BME280;61705;46.228;24.812;2023-08-31T02:17:04;96907.34;;;15.08;100.00
51261;BME280;61705;46.228;24.812;2023-08-31T02:19:30;96910.78;;;14.97;100.00
51261;BME280;61705;46.228;24.812;2023-08-31T02:21:57;96921.59;;;15.07;100.00
51261;BME280;61705;46.228;24.812;2023-08-31T02:24:23;96908.56;;;15.15;100.00
51261;BME280;61705;46.228;24.812;2023-08-31T02:26:51;96911.94;;;15.17;100.00
51261;BME280;61705;46.228;24.812;2023-08-31T02:29:18;96916.31;;;14.83;100.00
51261;BME280;61705;46.228;24.812;2023-08-31T02:31:45;96920.72;;;14.95;100.00
51261;BME280;61705;46.228;24.812;2023-08-31T02:34:11;96926.84;;;14.84;100.00
51261;BME280;61705;46.228;24.812;2023-08-31T02:36:38;96927.31;;;14.78;100.00
51261;BME280;61705;46.228;24.812;2023-08-31T02:39:04;96932.84;;;14.75;100.00
51261;BME280;61705;46.228;24.812;2023-08-31T02:41:32;96930.44;;;14.83;100.00
51261;BME280;61705;46.228;24.812;2023-08-31T02:43:59;96937.66;;;14.94;100.00
51261;BME280;61705;46.228;24.812;2023-08-31T02:46:25;96936.06;;;14.91;100.00
51261;BME280;61705;46.228;24.812;2023-08-31T02:48:52;96931.69;;;14.90;100.00
51261;BME280;61705;46.228;24.812;2023-08-31T02:51:18;96934.31;;;14.79;100.00
51261;BME280;61705;46.228;24.812;2023-08-31T02:53:45;96932.56;;;14.91;100.00
51261;BME280;61705;46.228;24.812;2023-08-31T02:56:11;96934.66;;;14.75;100.00
51261;BME280;61705;46.228;24.812;2023-08-31T02:58:38;96938.28;;;14.74;100.00
51261;BME280;61705;46.228;24.812;2023-08-31T03:01:12;96945.41;;;14.73;100.00
51261;BME280;61705;46.228;24.812;2023-08-31T03:03:42;96945.69;;;14.57;100.00
51261;BME280;61705;46.228;24.812;2023-08-31T03:06:11;96941.97;;;14.47;100.00
51261;BME280;61705;46.228;24.812;2023-08-31T03:08:38;96930.41;;;14.35;100.00
51261;BME280;61705;46.228;24.812;2023-08-31T03:11:05;96937.09;;;14.41;100.00
51261;BME280;61705;46.228;24.812;2023-08-31T03:13:32;96945.94;;;14.41;100.00
51261;BME280;61705;46.228;24.812;2023-08-31T03:15:59;96945.91;;;14.54;100.00
51261;BME280;61705;46.228;24.812;2023-08-31T03:18:26;96945.34;;;14.62;100.00
51261;BME280;61705;46.228;24.812;2023-08-31T03:20:52;96947.78;;;14.65;100.00
51261;BME280;61705;46.228;24.812;2023-08-31T03:23:19;96952.13;;;14.66;100.00
51261;BME280;61705;46.228;24.812;2023-08-31T03:25:45;96955.50;;;14.44;100.00
51261;BME280;61705;46.228;24.812;2023-08-31T03:28:12;96953.34;;;14.49;100.00
51261;BME280;61705;46.228;24.812;2023-08-31T03:30:39;96959.09;;;14.56;100.00
51261;BME280;61705;46.228;24.812;2023-08-31T03:33:06;96954.22;;;14.50;100.00
51261;BME280;61705;46.228;24.812;2023-08-31T03:35:33;96950.91;;;14.46;100.00
51261;BME280;61705;46.228;24.812;2023-08-31T03:38:00;96954.44;;;14.46;100.00
51261;BME280;61705;46.228;24.812;2023-08-31T03:40:27;96956.94;;;14.11;100.00
51261;BME280;61705;46.228;24.812;2023-08-31T03:42:53;96962.78;;;14.29;100.00
51261;BME280;61705;46.228;24.812;2023-08-31T03:45:20;96963.22;;;14.23;100.00
51261;BME280;61705;46.228;24.812;2023-08-31T03:47:47;96955.94;;;14.38;100.00
51261;BME280;61705;46.228;24.812;2023-08-31T03:50:13;96964.44;;;14.43;100.00
51261;BME280;61705;46.228;24.812;2023-08-31T03:52:40;96963.78;;;14.52;100.00
51261;BME280;61705;46.228;24.812;2023-08-31T03:55:07;96961.84;;;14.67;100.00
51261;BME280;61705;46.228;24.812;2023-08-31T03:57:33;96966.44;;;14.76;100.00
51261;BME280;61705;46.228;24.812;2023-08-31T04:00:00;96961.44;;;14.60;100.00
51261;BME280;61705;46.228;24.812;2023-08-31T04:02:26;96960.91;;;14.55;100.00
51261;BME280;61705;46.228;24.812;2023-08-31T04:04:53;96963.56;;;14.55;100.00
51261;BME280;61705;46.228;24.812;2023-08-31T04:07:20;96960.47;;;14.49;100.00
51261;BME280;61705;46.228;24.812;2023-08-31T04:09:46;96963.25;;;14.60;100.00
51261;BME280;61705;46.228;24.812;2023-08-31T04:12:13;96966.34;;;14.54;100.00
51261;BME280;61705;46.228;24.812;2023-08-31T04:14:39;96962.84;;;14.53;100.00
51261;BME280;61705;46.228;24.812;2023-08-31T04:17:06;96969.06;;;14.65;100.00
51261;BME280;61705;46.228;24.812;2023-08-31T04:19:32;96967.66;;;14.72;100.00
51261;BME280;61705;46.228;24.812;2023-08-31T04:21:59;96970.56;;;14.56;100.00
51261;BME280;61705;46.228;24.812;2023-08-31T04:24:26;96972.91;;;14.61;100.00
51261;BME280;61705;46.228;24.812;2023-08-31T04:26:54;96975.00;;;14.68;100.00
51261;BME280;61705;46.228;24.812;2023-08-31T04:29:22;96975.75;;;14.71;100.00
51261;BME280;61705;46.228;24.812;2023-08-31T04:31:48;96970.09;;;14.75;100.00
51261;BME280;61705;46.228;24.812;2023-08-31T04:34:15;96972.56;;;14.65;100.00
51261;BME280;61705;46.228;24.812;2023-08-31T04:36:42;96977.56;;;14.70;100.00
51261;BME280;61705;46.228;24.812;2023-08-31T04:39:08;96980.03;;;14.60;100.00
51261;BME280;61705;46.228;24.812;2023-08-31T04:41:35;96985.53;;;14.70;100.00
51261;BME280;61705;46.228;24.812;2023-08-31T04:44:02;96984.84;;;14.79;100.00
51261;BME280;61705;46.228;24.812;2023-08-31T04:46:29;96991.81;;;14.69;100.00
51261;BME280;61705;46.228;24.812;2023-08-31T04:48:56;96989.94;;;14.58;100.00
51261;BME280;61705;46.228;24.812;2023-08-31T04:51:29;96997.66;;;14.74;100.00
51261;BME280;61705;46.228;24.812;2023-08-31T04:53:57;96990.91;;;15.05;100.00
51261;BME280;61705;46.228;24.812;2023-08-31T04:56:24;96994.63;;;15.03;100.00
51261;BME280;61705;46.228;24.812;2023-08-31T04:58:50;96992.59;;;15.06;100.00
51261;BME280;61705;46.228;24.812;2023-08-31T05:01:17;97003.25;;;15.06;100.00
51261;BME280;61705;46.228;24.812;2023-08-31T05:03:44;97010.78;;;14.88;100.00
51261;BME280;61705;46.228;24.812;2023-08-31T05:06:10;97018.94;;;14.98;100.00
51261;BME280;61705;46.228;24.812;2023-08-31T05:08:37;97023.97;;;15.14;100.00
51261;BME280;61705;46.228;24.812;2023-08-31T05:11:07;97019.34;;;14.81;100.00
51261;BME280;61705;46.228;24.812;2023-08-31T05:13:34;97022.78;;;14.70;100.00
51261;BME280;61705;46.228;24.812;2023-08-31T05:16:01;97029.59;;;14.61;100.00
51261;BME280;61705;46.228;24.812;2023-08-31T05:18:29;97026.41;;;14.93;100.00
51261;BME280;61705;46.228;24.812;2023-08-31T05:20:55;97033.13;;;15.10;100.00
51261;BME280;61705;46.228;24.812;2023-08-31T05:23:22;97030.69;;;15.31;99.72
51261;BME280;61705;46.228;24.812;2023-08-31T05:25:48;97021.75;;;15.32;99.25
51261;BME280;61705;46.228;24.812;2023-08-31T05:28:15;97031.44;;;15.33;99.05
51261;BME280;61705;46.228;24.812;2023-08-31T05:30:49;97035.91;;;15.32;98.50
51261;BME280;61705;46.228;24.812;2023-08-31T05:33:20;97033.44;;;14.94;98.97
51261;BME280;61705;46.228;24.812;2023-08-31T05:35:48;97033.59;;;15.04;99.95
51261;BME280;61705;46.228;24.812;2023-08-31T05:38:15;97044.94;;;15.19;99.38
51261;BME280;61705;46.228;24.812;2023-08-31T05:40:41;97046.97;;;15.15;99.11
51261;BME280;61705;46.228;24.812;2023-08-31T05:43:12;97039.66;;;15.30;98.45
51261;BME280;61705;46.228;24.812;2023-08-31T05:45:39;97037.25;;;15.38;97.54
51261;BME280;61705;46.228;24.812;2023-08-31T05:48:06;97048.41;;;15.43;96.96
51261;BME280;61705;46.228;24.812;2023-08-31T05:50:33;97040.44;;;15.54;96.73
51261;BME280;61705;46.228;24.812;2023-08-31T05:53:00;97052.16;;;15.76;96.47
51261;BME280;61705;46.228;24.812;2023-08-31T05:55:27;97054.38;;;15.82;94.28
51261;BME280;61705;46.228;24.812;2023-08-31T05:57:53;97064.63;;;15.40;94.36
51261;BME280;61705;46.228;24.812;2023-08-31T06:00:20;97062.34;;;15.71;95.69
51261;BME280;61705;46.228;24.812;2023-08-31T06:02:46;97072.56;;;15.88;93.92
51261;BME280;61705;46.228;24.812;2023-08-31T06:05:13;97069.03;;;15.87;93.17
51261;BME280;61705;46.228;24.812;2023-08-31T06:07:43;97070.63;;;15.90;93.21
51261;BME280;61705;46.228;24.812;2023-08-31T06:10:12;97078.28;;;16.06;93.83
51261;BME280;61705;46.228;24.812;2023-08-31T06:12:39;97088.31;;;15.91;92.94
51261;BME280;61705;46.228;24.812;2023-08-31T06:15:06;97100.28;;;15.85;94.13
51261;BME280;61705;46.228;24.812;2023-08-31T06:17:33;97103.09;;;15.95;93.36
51261;BME280;61705;46.228;24.812;2023-08-31T06:20:01;97092.06;;;16.00;93.54
51261;BME280;61705;46.228;24.812;2023-08-31T06:22:28;97101.03;;;15.99;93.38
51261;BME280;61705;46.228;24.812;2023-08-31T06:24:55;97099.00;;;16.14;93.53
51261;BME280;61705;46.228;24.812;2023-08-31T06:27:21;97093.44;;;16.17;93.78
51261;BME280;61705;46.228;24.812;2023-08-31T06:29:48;97097.44;;;16.11;93.14
51261;BME280;61705;46.228;24.812;2023-08-31T06:32:16;97094.31;;;16.28;92.24
51261;BME280;61705;46.228;24.812;2023-08-31T06:34:42;97099.66;;;16.40;91.78
51261;BME280;61705;46.228;24.812;2023-08-31T06:37:09;97091.28;;;16.44;90.78
51261;BME280;61705;46.228;24.812;2023-08-31T06:39:36;97088.75;;;16.43;90.66
51261;BME280;61705;46.228;24.812;2023-08-31T06:42:02;97087.31;;;16.72;89.61
51261;BME280;61705;46.228;24.812;2023-08-31T06:44:31;97097.66;;;17.32;88.05
51261;BME280;61705;46.228;24.812;2023-08-31T06:46:57;97089.38;;;17.67;85.92
51261;BME280;61705;46.228;24.812;2023-08-31T06:49:24;97093.78;;;17.68;85.47
51261;BME280;61705;46.228;24.812;2023-08-31T06:51:51;97098.03;;;17.16;86.14
51261;BME280;61705;46.228;24.812;2023-08-31T06:54:17;97105.94;;;17.61;87.42
51261;BME280;61705;46.228;24.812;2023-08-31T06:56:44;97108.72;;;17.91;84.81
51261;BME280;61705;46.228;24.812;2023-08-31T06:59:10;97115.88;;;18.23;84.49
51261;BME280;61705;46.228;24.812;2023-08-31T07:01:37;97118.97;;;17.86;83.45
51261;BME280;61705;46.228;24.812;2023-08-31T07:04:06;97127.91;;;17.64;84.94
51261;BME280;61705;46.228;24.812;2023-08-31T07:06:34;97128.53;;;17.57;85.19
51261;BME280;61705;46.228;24.812;2023-08-31T07:09:01;97135.94;;;17.64;84.79
51261;BME280;61705;46.228;24.812;2023-08-31T07:11:28;97131.06;;;18.22;84.03
51261;BME280;61705;46.228;24.812;2023-08-31T07:14:07;97131.41;;;18.81;81.83
51261;BME280;61705;46.228;24.812;2023-08-31T07:16:34;97140.81;;;19.06;80.89
51261;BME280;61705;46.228;24.812;2023-08-31T07:19:01;97133.16;;;18.91;80.21
51261;BME280;61705;46.228;24.812;2023-08-31T07:21:29;97129.34;;;18.94;79.94
51261;BME280;61705;46.228;24.812;2023-08-31T07:23:55;97147.75;;;18.36;81.94
51261;BME280;61705;46.228;24.812;2023-08-31T07:26:23;97137.44;;;18.31;82.08
51261;BME280;61705;46.228;24.812;2023-08-31T07:28:50;97137.69;;;18.28;82.99
51261;BME280;61705;46.228;24.812;2023-08-31T07:31:16;97137.56;;;18.51;82.37
51261;BME280;61705;46.228;24.812;2023-08-31T07:33:43;97143.91;;;18.50;81.71
51261;BME280;61705;46.228;24.812;2023-08-31T07:36:10;97137.19;;;18.86;80.74
51261;BME280;61705;46.228;24.812;2023-08-31T07:38:36;97135.22;;;19.18;79.55
51261;BME280;61705;46.228;24.812;2023-08-31T07:41:03;97128.75;;;19.31;79.68
51261;BME280;61705;46.228;24.812;2023-08-31T07:43:30;97138.50;;;19.41;80.01
51261;BME280;61705;46.228;24.812;2023-08-31T07:45:57;97136.47;;;19.14;78.92
51261;BME280;61705;46.228;24.812;2023-08-31T07:48:24;97141.66;;;19.06;80.31
51261;BME280;61705;46.228;24.812;2023-08-31T07:50:50;97136.34;;;19.26;79.66
51261;BME280;61705;46.228;24.812;2023-08-31T07:53:17;97135.84;;;19.51;78.65
51261;BME280;61705;46.228;24.812;2023-08-31T07:55:53;97133.56;;;19.37;78.92
51261;BME280;61705;46.228;24.812;2023-08-31T07:58:23;97142.31;;;19.58;78.03
51261;BME280;61705;46.228;24.812;2023-08-31T08:00:52;97144.06;;;19.79;77.91
51261;BME280;61705;46.228;24.812;2023-08-31T08:03:19;97140.28;;;19.81;77.50
51261;BME280;61705;46.228;24.812;2023-08-31T08:05:45;97142.69;;;19.94;77.54
51261;BME280;61705;46.228;24.812;2023-08-31T08:08:13;97136.59;;;20.02;76.80
51261;BME280;61705;46.228;24.812;2023-08-31T08:10:41;97137.31;;;20.04;76.99
51261;BME280;61705;46.228;24.812;2023-08-31T08:13:09;97139.41;;;20.10;76.22
51261;BME280;61705;46.228;24.812;2023-08-31T08:15:37;97143.41;;;19.86;76.12
51261;BME280;61705;46.228;24.812;2023-08-31T08:18:04;97136.03;;;19.98;76.18
51261;BME280;61705;46.228;24.812;2023-08-31T08:20:30;97138.72;;;19.98;76.58
51261;BME280;61705;46.228;24.812;2023-08-31T08:22:57;97137.44;;;20.02;76.36
51261;BME280;61705;46.228;24.812;2023-08-31T08:25:25;97134.41;;;20.44;75.49
51261;BME280;61705;46.228;24.812;2023-08-31T08:27:52;97129.84;;;20.74;74.56
51261;BME280;61705;46.228;24.812;2023-08-31T08:30:18;97133.06;;;20.87;73.85
51261;BME280;61705;46.228;24.812;2023-08-31T08:32:45;97130.97;;;20.71;74.32
51261;BME280;61705;46.228;24.812;2023-08-31T08:35:15;97136.16;;;20.55;74.87
51261;BME280;61705;46.228;24.812;2023-08-31T08:37:42;97142.44;;;20.73;73.71
51261;BME280;61705;46.228;24.812;2023-08-31T08:40:09;97138.03;;;20.82;74.08
51261;BME280;61705;46.228;24.812;2023-08-31T08:42:40;97129.78;;;20.56;73.64
51261;BME280;61705;46.228;24.812;2023-08-31T08:45:13;97138.81;;;20.45;73.97
51261;BME280;61705;46.228;24.812;2023-08-31T08:47:43;97137.69;;;20.38;74.27
51261;BME280;61705;46.228;24.812;2023-08-31T08:50:11;97137.84;;;20.36;74.06
51261;BME280;61705;46.228;24.812;2023-08-31T08:52:39;97136.16;;;20.26;73.00
51261;BME280;61705;46.228;24.812;2023-08-31T08:55:06;97136.13;;;20.45;72.07
51261;BME280;61705;46.228;24.812;2023-08-31T08:57:34;97134.13;;;20.67;70.99
51261;BME280;61705;46.228;24.812;2023-08-31T09:00:01;97130.47;;;20.95;70.10
51261;BME280;61705;46.228;24.812;2023-08-31T09:02:27;97126.00;;;20.86;69.65
51261;BME280;61705;46.228;24.812;2023-08-31T09:04:54;97125.16;;;20.86;67.60
51261;BME280;61705;46.228;24.812;2023-08-31T09:07:21;97125.16;;;20.86;66.23
51261;BME280;61705;46.228;24.812;2023-08-31T09:09:48;97128.00;;;21.12;66.73
51261;BME280;61705;46.228;24.812;2023-08-31T09:12:16;97133.78;;;20.89;67.56
51261;BME280;61705;46.228;24.812;2023-08-31T09:14:43;97141.09;;;21.24;67.76
51261;BME280;61705;46.228;24.812;2023-08-31T09:17:10;97138.88;;;21.47;66.89
51261;BME280;61705;46.228;24.812;2023-08-31T09:19:37;97146.03;;;21.57;66.27
51261;BME280;61705;46.228;24.812;2023-08-31T09:22:04;97140.88;;;21.63;65.58
51261;BME280;61705;46.228;24.812;2023-08-31T09:24:43;97128.75;;;21.59;65.33
51261;BME280;61705;46.228;24.812;2023-08-31T09:27:11;97127.59;;;21.97;64.67
51261;BME280;61705;46.228;24.812;2023-08-31T09:29:37;97122.38;;;21.96;64.65
51261;BME280;61705;46.228;24.812;2023-08-31T09:32:05;97131.75;;;22.10;64.61
51261;BME280;61705;46.228;24.812;2023-08-31T09:34:32;97131.44;;;22.13;64.29
51261;BME280;61705;46.228;24.812;2023-08-31T09:37:03;97131.94;;;22.26;64.17
51261;BME280;61705;46.228;24.812;2023-08-31T09:39:37;97130.28;;;22.59;63.87
51261;BME280;61705;46.228;24.812;2023-08-31T09:42:04;97128.28;;;22.61;63.22
51261;BME280;61705;46.228;24.812;2023-08-31T09:44:30;97127.97;;;22.64;63.22
51261;BME280;61705;46.228;24.812;2023-08-31T09:46:57;97134.00;;;22.58;63.30
51261;BME280;61705;46.228;24.812;2023-08-31T09:49:24;97132.06;;;22.77;63.49
51261;BME280;61705;46.228;24.812;2023-08-31T09:51:54;97135.66;;;22.59;62.98
51261;BME280;61705;46.228;24.812;2023-08-31T09:54:21;97134.47;;;22.54;63.66
51261;BME280;61705;46.228;24.812;2023-08-31T09:56:49;97129.72;;;22.47;63.83
51261;BME280;61705;46.228;24.812;2023-08-31T09:59:17;97132.38;;;22.39;64.19
51261;BME280;61705;46.228;24.812;2023-08-31T10:01:46;97137.41;;;22.42;64.06
51261;BME280;61705;46.228;24.812;2023-08-31T10:04:13;97129.84;;;22.64;63.39
51261;BME280;61705;46.228;24.812;2023-08-31T10:06:40;97132.66;;;22.88;62.73
51261;BME280;61705;46.228;24.812;2023-08-31T10:09:07;97128.69;;;23.01;62.32
51261;BME280;61705;46.228;24.812;2023-08-31T10:11:38;97127.78;;;23.18;61.93
51261;BME280;61705;46.228;24.812;2023-08-31T10:14:06;97130.00;;;23.23;61.31
51261;BME280;61705;46.228;24.812;2023-08-31T10:16:35;97125.56;;;23.13;61.59
51261;BME280;61705;46.228;24.812;2023-08-31T10:19:07;97130.59;;;23.51;60.72
51261;BME280;61705;46.228;24.812;2023-08-31T10:21:33;97123.66;;;23.48;59.98
51261;BME280;61705;46.228;24.812;2023-08-31T10:24:00;97129.59;;;23.60;59.41
51261;BME280;61705;46.228;24.812;2023-08-31T10:28:53;97136.34;;;23.64;59.06
51261;BME280;61705;46.228;24.812;2023-08-31T10:31:20;97135.41;;;23.73;59.11
51261;BME280;61705;46.228;24.812;2023-08-31T10:33:59;97136.28;;;23.98;58.21
51261;BME280;61705;46.228;24.812;2023-08-31T10:39:04;97126.69;;;24.53;57.19
51261;BME280;61705;46.228;24.812;2023-08-31T10:41:32;97130.56;;;24.58;56.21
51261;BME280;61705;46.228;24.812;2023-08-31T10:44:01;97129.88;;;24.56;56.13
51261;BME280;61705;46.228;24.812;2023-08-31T10:46:32;97131.91;;;24.30;55.92
51261;BME280;61705;46.228;24.812;2023-08-31T10:49:00;97128.38;;;24.62;55.73
51261;BME280;61705;46.228;24.812;2023-08-31T10:51:30;97128.03;;;24.65;54.32
51261;BME280;61705;46.228;24.812;2023-08-31T10:54:43;97122.47;;;24.50;54.13
51261;BME280;61705;46.228;24.812;2023-08-31T10:56:54;97130.22;;;24.62;53.97
51261;BME280;61705;46.228;24.812;2023-08-31T10:59:25;97127.88;;;24.42;53.94
51261;BME280;61705;46.228;24.812;2023-08-31T11:04:22;97128.91;;;24.41;54.02
51261;BME280;61705;46.228;24.812;2023-08-31T11:06:49;97129.38;;;24.28;53.63
51261;BME280;61705;46.228;24.812;2023-08-31T11:09:19;97123.31;;;24.18;53.83
51261;BME280;61705;46.228;24.812;2023-08-31T11:11:46;97124.84;;;24.21;53.61
51261;BME280;61705;46.228;24.812;2023-08-31T11:14:14;97126.69;;;24.28;54.64
51261;BME280;61705;46.228;24.812;2023-08-31T11:16:42;97125.31;;;24.00;54.77
51261;BME280;61705;46.228;24.812;2023-08-31T11:19:09;97129.88;;;23.91;55.56
51261;BME280;61705;46.228;24.812;2023-08-31T11:21:37;97127.16;;;23.91;55.31
51261;BME280;61705;46.228;24.812;2023-08-31T11:24:04;97118.06;;;23.84;54.54
51261;BME280;61705;46.228;24.812;2023-08-31T11:26:33;97130.84;;;23.82;55.05
51261;BME280;61705;46.228;24.812;2023-08-31T11:28:59;97130.16;;;23.72;55.57
51261;BME280;61705;46.228;24.812;2023-08-31T11:31:26;97127.66;;;23.78;55.99
51261;BME280;61705;46.228;24.812;2023-08-31T11:33:54;97131.88;;;23.81;56.27
51261;BME280;61705;46.228;24.812;2023-08-31T11:36:21;97130.41;;;24.11;55.43
51261;BME280;61705;46.228;24.812;2023-08-31T11:38:48;97124.31;;;24.25;55.14
51261;BME280;61705;46.228;24.812;2023-08-31T11:41:15;97135.47;;;24.14;55.11
51261;BME280;61705;46.228;24.812;2023-08-31T11:43:42;97132.41;;;24.09;55.73
51261;BME280;61705;46.228;24.812;2023-08-31T11:46:09;97139.50;;;24.34;55.35
51261;BME280;61705;46.228;24.812;2023-08-31T11:48:36;97139.34;;;24.28;55.61
51261;BME280;61705;46.228;24.812;2023-08-31T11:51:03;97139.03;;;24.55;55.16
51261;BME280;61705;46.228;24.812;2023-08-31T11:53:29;97139.69;;;24.66;55.16
51261;BME280;61705;46.228;24.812;2023-08-31T11:55:56;97128.47;;;24.85;54.89
51261;BME280;61705;46.228;24.812;2023-08-31T11:58:25;97133.22;;;24.75;55.10
51261;BME280;61705;46.228;24.812;2023-08-31T12:00:57;97134.31;;;24.41;55.52
51261;BME280;61705;46.228;24.812;2023-08-31T12:03:24;97139.34;;;24.52;55.72
51261;BME280;61705;46.228;24.812;2023-08-31T12:06:11;97133.44;;;24.65;55.48
51261;BME280;61705;46.228;24.812;2023-08-31T12:08:37;97128.28;;;25.03;54.91
51261;BME280;61705;46.228;24.812;2023-08-31T12:11:06;97137.38;;;25.10;54.52
51261;BME280;61705;46.228;24.812;2023-08-31T12:13:32;97145.69;;;25.00;54.63
51261;BME280;61705;46.228;24.812;2023-08-31T12:16:11;97131.97;;;25.58;54.02
51261;BME280;61705;46.228;24.812;2023-08-31T12:18:43;97128.38;;;25.26;54.28
51261;BME280;61705;46.228;24.812;2023-08-31T12:21:12;97128.44;;;25.49;54.16
51261;BME280;61705;46.228;24.812;2023-08-31T12:23:39;97135.28;;;25.68;53.56
51261;BME280;61705;46.228;24.812;2023-08-31T12:26:05;97139.09;;;25.50;53.82
51261;BME280;61705;46.228;24.812;2023-08-31T12:28:36;97137.19;;;25.59;53.74
51261;BME280;61705;46.228;24.812;2023-08-31T12:31:03;97133.94;;;25.64;53.67
51261;BME280;61705;46.228;24.812;2023-08-31T12:33:33;97147.59;;;25.70;53.48
51261;BME280;61705;46.228;24.812;2023-08-31T12:36:05;97143.28;;;25.61;54.58
51261;BME280;61705;46.228;24.812;2023-08-31T12:38:32;97135.38;;;25.43;54.42
51261;BME280;61705;46.228;24.812;2023-08-31T12:40:59;97135.50;;;25.19;55.04
51261;BME280;61705;46.228;24.812;2023-08-31T12:43:28;97138.53;;;25.16;54.47
51261;BME280;61705;46.228;24.812;2023-08-31T12:45:57;97137.44;;;24.86;54.64
51261;BME280;61705;46.228;24.812;2023-08-31T12:48:26;97135.00;;;25.07;54.24
51261;BME280;61705;46.228;24.812;2023-08-31T12:50:59;97139.63;;;24.90;54.82
51261;BME280;61705;46.228;24.812;2023-08-31T12:53:30;97128.88;;;24.66;52.48
51261;BME280;61705;46.228;24.812;2023-08-31T12:55:56;97127.88;;;25.22;53.06
51261;BME280;61705;46.228;24.812;2023-08-31T12:58:23;97122.88;;;25.50;51.98
51261;BME280;61705;46.228;24.812;2023-08-31T13:00:50;97135.63;;;25.65;52.22
51261;BME280;61705;46.228;24.812;2023-08-31T13:03:19;97128.94;;;25.13;51.92